This is the latest recevied weather packets stored in our database for station/object OH2TH. If no packets are shown the sender has not sent any weather packets the latest 10 day(s).
| Time | Temp. | Humidity | Pressure | Rain* | Wind** | Luminosity | Snow |
|---|---|---|---|---|---|---|---|
| 1777889700 | 10° C | 83% | 100 hPa | 44.45 mm | - | - | - |
| 1777888805 | 10° C | 79% | 100 hPa | 43.43 mm | - | - | - |
| 1777887905 | 10° C | 80% | 100 hPa | 33.27 mm | - | - | - |
| 1777887004 | 10.56° C | 74% | 100 hPa | 27.94 mm | - | - | - |
| 1777886104 | 11.67° C | 64% | 100 hPa | 15.49 mm | - | - | - |
| 1777885204 | 11.67° C | 68% | 100 hPa | 7.62 mm | - | - | - |
| 1777884303 | 11.67° C | 59% | 100 hPa | 3.81 mm | - | - | - |
| 1777883403 | 12.78° C | 49% | 100 hPa | - | - | - | - |
| 1777882503 | 13.33° C | 44% | 100 hPa | - | - | - | - |
| 1777881603 | 13.33° C | 43% | 100 hPa | - | - | - | - |
| 1777880703 | 13.33° C | 44% | 100 hPa | - | - | - | - |
| 1777879802 | 13.33° C | 42% | 100 hPa | - | - | - | - |
| 1777878902 | 12.78° C | 40% | 100 hPa | - | - | - | - |
| 1777878002 | 12.78° C | 37% | 100 hPa | - | - | - | - |
| 1777877102 | 12.78° C | 38% | 100 hPa | - | - | - | - |
| 1777876202 | 12.78° C | 42% | 100 hPa | - | - | - | - |
| 1777875302 | 11.67° C | 44% | 100 hPa | - | - | - | - |
| 1777874401 | 10.56° C | 45% | 100 hPa | - | - | - | - |
| 1777873501 | 10.56° C | 46% | 100 hPa | - | - | - | - |
| 1777872601 | 10° C | 49% | 100 hPa | - | - | - | - |
| 1777870804 | 7.78° C | 59% | 100 hPa | - | - | - | - |
| 1777869903 | 6.67° C | 64% | 100 hPa | - | - | - | - |
| 1777869003 | 5.56° C | 67% | 100 hPa | 7.11 mm | - | - | - |
| 1777868102 | 5° C | 69% | 100 hPa | 7.11 mm | - | - | - |
| 1777867201 | 5° C | 74% | 100 hPa | 7.11 mm | - | - | - |
* Rain latest hour (hover to see other rain measurements)
** Current wind speed in m/s (hover to see current wind gust speed)